createdAt,value
2018-11-29T00:00:28.606Z,31.78
2018-11-29T00:02:58.425Z,31.71
2018-11-29T00:05:33.870Z,31.58
2018-11-29T00:08:09.314Z,31.54
2018-11-29T00:10:39.089Z,31.60
2018-11-29T00:13:08.732Z,31.47
2018-11-29T00:15:45.193Z,31.48
2018-11-29T00:18:14.877Z,31.47
2018-11-29T00:20:44.700Z,31.37
2018-11-29T00:23:14.573Z,31.55
2018-11-29T00:25:44.398Z,31.34
2018-11-29T00:28:14.247Z,31.33
2018-11-29T00:30:43.973Z,31.27
2018-11-29T00:33:13.867Z,31.21
2018-11-29T00:35:43.666Z,31.05
2018-11-29T00:38:13.433Z,31.13
2018-11-29T00:40:43.584Z,31.07
2018-11-29T00:43:13.343Z,30.79
2018-11-29T00:45:43.125Z,30.83
2018-11-29T00:48:12.905Z,30.70
2018-11-29T00:50:42.737Z,30.66
2018-11-29T00:53:12.384Z,30.60
2018-11-29T00:55:42.117Z,30.51
2018-11-29T00:58:11.904Z,30.35
2018-11-29T01:00:41.588Z,30.30
2018-11-29T01:03:11.393Z,30.26
2018-11-29T01:05:41.205Z,30.27
2018-11-29T01:08:10.981Z,30.21
2018-11-29T01:10:40.789Z,30.09
2018-11-29T01:13:10.500Z,29.99
2018-11-29T01:15:40.384Z,30.03
2018-11-29T01:18:10.245Z,29.95
2018-11-29T01:20:40.028Z,29.83
2018-11-29T01:23:09.728Z,29.77
2018-11-29T01:25:39.416Z,29.65
2018-11-29T01:28:09.149Z,29.53
2018-11-29T01:30:38.965Z,29.65
2018-11-29T01:33:08.741Z,29.45
2018-11-29T01:36:06.180Z,29.45
2018-11-29T01:38:36.044Z,29.45
2018-11-29T01:41:06.105Z,29.31
2018-11-29T01:43:35.841Z,29.21
2018-11-29T01:46:05.581Z,29.05
2018-11-29T01:48:35.369Z,29.10
2018-11-29T01:51:05.078Z,29.09
2018-11-29T01:53:34.881Z,29.10
2018-11-29T01:56:04.566Z,28.89
2018-11-29T01:58:34.368Z,28.75
2018-11-29T02:01:04.140Z,28.78
2018-11-29T02:03:34.004Z,28.71
2018-11-29T02:06:03.764Z,28.65
2018-11-29T02:08:33.607Z,28.63
2018-11-29T02:11:03.457Z,28.50
2018-11-29T02:13:33.188Z,28.43
2018-11-29T02:16:02.978Z,28.35
2018-11-29T02:18:33.057Z,28.28
2018-11-29T02:21:02.937Z,28.33
2018-11-29T02:23:32.765Z,28.18
2018-11-29T02:26:02.454Z,28.21
2018-11-29T02:28:32.362Z,28.14
2018-11-29T02:31:02.748Z,28.07
2018-11-29T02:33:32.537Z,28.00
2018-11-29T02:36:02.293Z,27.95
2018-11-29T02:38:32.014Z,27.95
2018-11-29T02:41:01.716Z,27.90
2018-11-29T02:43:31.510Z,27.84
2018-11-29T02:46:01.388Z,27.76
2018-11-29T02:48:31.199Z,27.74
2018-11-29T02:51:01.098Z,27.74
2018-11-29T02:53:30.882Z,27.69
2018-11-29T02:56:00.698Z,27.60
2018-11-29T02:58:30.537Z,27.59
2018-11-29T03:01:00.280Z,27.57
2018-11-29T03:03:30.013Z,27.46
2018-11-29T03:05:59.768Z,27.38
2018-11-29T03:08:29.562Z,27.31
2018-11-29T03:10:59.361Z,27.30
2018-11-29T03:13:29.096Z,27.21
2018-11-29T03:15:58.865Z,27.20
2018-11-29T03:18:28.568Z,27.15
2018-11-29T03:20:58.367Z,27.06
2018-11-29T03:23:27.988Z,26.99
2018-11-29T03:25:57.746Z,26.93
2018-11-29T03:28:27.465Z,26.91
2018-11-29T03:30:57.238Z,26.84
2018-11-29T03:33:27.397Z,26.86
2018-11-29T03:35:57.121Z,26.83
2018-11-29T03:38:26.896Z,26.85
2018-11-29T03:40:56.714Z,26.72
2018-11-29T03:43:26.496Z,26.77
2018-11-29T03:45:56.333Z,26.70
2018-11-29T03:48:26.117Z,26.58
2018-11-29T03:50:55.940Z,26.63
2018-11-29T03:53:25.742Z,26.63
2018-11-29T03:55:55.524Z,26.54
2018-11-29T03:58:25.344Z,26.49
2018-11-29T04:00:55.156Z,26.44
2018-11-29T04:03:24.968Z,26.44
2018-11-29T04:05:54.887Z,26.36
2018-11-29T04:08:24.716Z,26.32
2018-11-29T04:10:54.513Z,26.29
2018-11-29T04:13:24.411Z,26.32
2018-11-29T04:15:54.130Z,26.23
2018-11-29T04:18:23.911Z,26.23
2018-11-29T04:20:53.772Z,26.15
2018-11-29T04:23:23.574Z,26.08
2018-11-29T04:25:53.244Z,26.08
2018-11-29T04:28:22.972Z,26.01
2018-11-29T04:30:52.865Z,25.99
2018-11-29T04:33:22.746Z,26.03
2018-11-29T04:35:52.557Z,25.98
2018-11-29T04:38:22.270Z,25.93
2018-11-29T04:40:52.317Z,25.89
2018-11-29T04:43:22.080Z,25.83
2018-11-29T04:46:02.863Z,25.74
2018-11-29T04:48:32.615Z,25.76
2018-11-29T04:51:02.489Z,25.73
2018-11-29T04:53:32.196Z,25.66
2018-11-29T04:56:02.007Z,25.64
2018-11-29T04:58:31.748Z,25.67
2018-11-29T05:01:01.476Z,25.61
2018-11-29T05:03:31.549Z,25.60
2018-11-29T05:06:01.350Z,25.55
2018-11-29T05:08:31.170Z,25.54
2018-11-29T05:11:01.041Z,25.50
2018-11-29T05:13:30.904Z,25.52
2018-11-29T05:16:00.561Z,25.42
2018-11-29T05:18:30.367Z,25.43
2018-11-29T05:21:00.221Z,25.43
2018-11-29T05:23:30.124Z,25.38
2018-11-29T05:25:59.709Z,25.35
2018-11-29T05:28:29.380Z,25.29
2018-11-29T05:30:59.098Z,25.28
2018-11-29T05:33:29.141Z,25.26
2018-11-29T05:35:58.997Z,25.28
2018-11-29T05:38:28.805Z,25.26
2018-11-29T05:40:58.878Z,25.21
2018-11-29T05:43:28.634Z,25.15
2018-11-29T05:45:58.365Z,25.12
2018-11-29T05:48:28.159Z,25.11
2018-11-29T05:50:57.865Z,25.08
2018-11-29T05:53:27.521Z,25.03
2018-11-29T05:55:57.245Z,25.03
2018-11-29T05:58:27.098Z,25.00
2018-11-29T06:00:57.489Z,24.98
2018-11-29T06:03:27.327Z,24.93
2018-11-29T06:05:57.103Z,24.91
2018-11-29T06:08:26.892Z,24.92
2018-11-29T06:10:56.570Z,24.91
2018-11-29T06:13:26.333Z,24.88
2018-11-29T06:15:56.136Z,24.82
2018-11-29T06:18:26.045Z,24.82
2018-11-29T06:20:56.025Z,24.74
2018-11-29T06:23:25.949Z,24.71
2018-11-29T06:25:55.710Z,24.69
2018-11-29T06:28:25.567Z,24.65
2018-11-29T06:30:55.348Z,24.63
2018-11-29T06:33:25.166Z,24.63
2018-11-29T06:35:54.968Z,24.57
2018-11-29T06:38:24.797Z,24.55
2018-11-29T06:40:54.661Z,24.56
2018-11-29T06:43:24.543Z,24.51
2018-11-29T06:45:54.351Z,24.51
2018-11-29T06:48:24.185Z,24.46
2018-11-29T06:50:53.976Z,24.47
2018-11-29T06:53:28.908Z,24.44
2018-11-29T06:55:58.605Z,24.44
2018-11-29T06:58:28.428Z,24.38
2018-11-29T07:00:58.240Z,24.36
2018-11-29T07:03:28.905Z,24.35
2018-11-29T07:05:57.966Z,24.33
2018-11-29T07:08:27.717Z,24.31
2018-11-29T07:10:57.545Z,24.26
2018-11-29T07:13:27.333Z,24.25
2018-11-29T07:15:57.007Z,24.25
2018-11-29T07:18:26.784Z,24.23
2018-11-29T07:21:07.489Z,24.22
2018-11-29T07:23:37.269Z,24.20
2018-11-29T07:26:07.526Z,24.20
2018-11-29T07:28:37.341Z,24.18
2018-11-29T07:31:07.351Z,24.17
2018-11-29T07:33:37.032Z,24.13
2018-11-29T07:36:07.244Z,24.12
2018-11-29T07:38:37.036Z,24.10
2018-11-29T07:41:06.970Z,24.09
2018-11-29T07:43:36.754Z,24.06
2018-11-29T07:46:06.740Z,24.04
2018-11-29T07:48:36.508Z,24.01
2018-11-29T07:51:06.569Z,23.99
2018-11-29T07:53:36.385Z,23.99
2018-11-29T07:56:06.168Z,23.94
2018-11-29T07:58:35.904Z,23.94
2018-11-29T08:01:07.047Z,23.90
2018-11-29T08:03:36.957Z,23.91
2018-11-29T08:06:06.673Z,23.88
2018-11-29T08:08:36.741Z,23.85
2018-11-29T08:11:06.629Z,23.83
2018-11-29T08:13:36.368Z,23.81
2018-11-29T08:16:06.465Z,23.81
2018-11-29T08:18:36.154Z,23.82
2018-11-29T08:21:06.018Z,23.82
2018-11-29T08:23:35.797Z,23.82
2018-11-29T08:26:05.575Z,23.74
2018-11-29T08:28:35.361Z,23.71
2018-11-29T08:31:05.380Z,23.68
2018-11-29T08:33:35.148Z,23.69
2018-11-29T08:36:04.848Z,23.68
2018-11-29T08:38:34.564Z,23.67
2018-11-29T08:41:04.296Z,23.62
2018-11-29T08:43:34.689Z,23.62
2018-11-29T08:46:05.216Z,23.60
2018-11-29T08:48:35.006Z,23.59
2018-11-29T08:51:04.649Z,23.58
2018-11-29T08:53:34.729Z,23.57
2018-11-29T08:56:04.652Z,23.56
2018-11-29T08:58:34.413Z,23.55
2018-11-29T09:01:04.173Z,23.53
2018-11-29T09:03:34.085Z,23.51
2018-11-29T09:06:03.898Z,23.49
2018-11-29T09:08:33.706Z,23.48
2018-11-29T09:11:03.521Z,23.45
2018-11-29T09:13:33.330Z,23.44
2018-11-29T09:16:03.110Z,23.44
2018-11-29T09:18:32.963Z,23.41
2018-11-29T09:21:02.635Z,23.41
2018-11-29T09:23:32.464Z,23.40
2018-11-29T09:26:02.188Z,23.40
2018-11-29T09:28:31.833Z,23.39
2018-11-29T09:31:01.674Z,23.40
2018-11-29T09:33:31.461Z,23.36
2018-11-29T09:36:01.333Z,23.33
2018-11-29T09:38:31.115Z,23.32
2018-11-29T09:41:00.972Z,23.29
2018-11-29T09:43:30.636Z,23.27
2018-11-29T09:46:00.477Z,23.26
2018-11-29T09:48:30.256Z,23.26
2018-11-29T09:51:00.058Z,23.24
2018-11-29T09:53:29.916Z,23.26
2018-11-29T09:55:59.794Z,23.21
2018-11-29T09:58:29.480Z,23.21
2018-11-29T10:00:59.301Z,23.19
2018-11-29T10:03:29.413Z,23.20
2018-11-29T10:05:59.241Z,23.16
2018-11-29T10:08:29.040Z,23.14
2018-11-29T10:10:58.910Z,23.16
2018-11-29T10:13:28.545Z,23.10
2018-11-29T10:15:58.245Z,23.07
2018-11-29T10:18:28.040Z,23.12
2018-11-29T10:20:57.784Z,23.11
2018-11-29T10:23:27.521Z,23.09
2018-11-29T10:25:57.305Z,23.07
2018-11-29T10:28:27.081Z,23.06
2018-11-29T10:30:59.878Z,23.06
2018-11-29T10:33:29.637Z,23.05
2018-11-29T10:35:59.585Z,23.02
2018-11-29T10:38:29.169Z,23.03
2018-11-29T10:40:58.977Z,23.00
2018-11-29T10:43:28.690Z,22.98
2018-11-29T10:45:58.473Z,22.99
2018-11-29T10:48:28.146Z,22.99
2018-11-29T10:50:57.892Z,22.96
2018-11-29T10:53:27.770Z,22.94
2018-11-29T10:55:57.582Z,22.95
2018-11-29T10:58:27.409Z,22.94
2018-11-29T11:01:02.029Z,22.95
2018-11-29T11:03:31.840Z,22.94
2018-11-29T11:06:01.573Z,22.92
2018-11-29T11:08:31.306Z,22.90
2018-11-29T11:11:07.517Z,22.91
2018-11-29T11:13:38.450Z,22.88
2018-11-29T11:16:08.278Z,22.84
2018-11-29T11:18:38.177Z,22.83
2018-11-29T11:21:07.915Z,22.83
2018-11-29T11:23:37.647Z,22.83
2018-11-29T11:26:07.481Z,22.83
2018-11-29T11:28:37.322Z,22.80
2018-11-29T11:31:06.996Z,22.79
2018-11-29T11:33:36.808Z,22.79
2018-11-29T11:36:06.626Z,22.76
2018-11-29T11:38:36.405Z,22.76
2018-11-29T11:41:06.313Z,22.77
2018-11-29T11:43:36.197Z,22.77
2018-11-29T11:46:06.010Z,22.75
2018-11-29T11:48:35.946Z,22.74
2018-11-29T11:51:05.804Z,22.66
2018-11-29T11:53:35.642Z,22.71
2018-11-29T11:56:05.592Z,22.70
2018-11-29T11:58:35.332Z,22.69
2018-11-29T12:01:05.117Z,22.69
2018-11-29T12:03:34.758Z,22.67
2018-11-29T12:06:04.564Z,22.66
2018-11-29T12:08:34.352Z,22.66
2018-11-29T12:11:04.125Z,22.66
2018-11-29T12:13:33.909Z,22.65
2018-11-29T12:16:03.705Z,22.64
2018-11-29T12:18:33.508Z,22.62
2018-11-29T12:21:03.329Z,22.61
2018-11-29T12:23:33.186Z,22.60
2018-11-29T12:26:04.377Z,22.60
2018-11-29T12:28:34.177Z,22.59
2018-11-29T12:31:03.889Z,22.58
2018-11-29T12:33:33.601Z,22.59
2018-11-29T12:36:03.409Z,22.58
2018-11-29T12:38:33.141Z,22.56
2018-11-29T12:41:02.940Z,22.56
2018-11-29T12:43:32.916Z,22.53
2018-11-29T12:46:02.688Z,22.52
2018-11-29T12:48:32.594Z,22.50
2018-11-29T12:51:02.385Z,22.50
2018-11-29T12:53:32.269Z,22.48
2018-11-29T12:56:02.181Z,22.51
2018-11-29T12:58:32.034Z,22.50
2018-11-29T13:01:01.908Z,22.48
2018-11-29T13:03:31.725Z,22.47
2018-11-29T13:06:01.536Z,22.45
2018-11-29T13:08:31.345Z,22.44
2018-11-29T13:11:01.175Z,22.44
2018-11-29T13:13:30.933Z,22.45
2018-11-29T13:16:00.710Z,22.43
2018-11-29T13:18:30.427Z,22.42
2018-11-29T13:21:03.133Z,22.41
2018-11-29T13:23:32.916Z,22.41
2018-11-29T13:26:02.626Z,22.41
2018-11-29T13:28:33.167Z,22.40
2018-11-29T13:31:02.962Z,22.39
2018-11-29T13:33:33.022Z,22.39
2018-11-29T13:36:02.509Z,22.38
2018-11-29T13:38:32.265Z,22.37
2018-11-29T13:41:02.077Z,22.35
2018-11-29T13:43:31.895Z,22.34
2018-11-29T13:46:01.704Z,22.35
2018-11-29T13:48:31.483Z,22.35
2018-11-29T13:51:01.328Z,22.34
2018-11-29T13:53:31.092Z,22.33
2018-11-29T13:56:00.887Z,22.32
2018-11-29T13:58:30.716Z,22.32
2018-11-29T14:01:00.652Z,22.33
2018-11-29T14:03:30.389Z,22.31
2018-11-29T14:06:01.004Z,22.29
2018-11-29T14:08:31.209Z,22.29
2018-11-29T14:11:01.021Z,22.29
2018-11-29T14:13:30.744Z,22.29
2018-11-29T14:16:00.505Z,22.30
2018-11-29T14:18:33.652Z,22.28
2018-11-29T14:21:03.446Z,22.29
2018-11-29T14:23:33.275Z,22.29
2018-11-29T14:26:03.133Z,22.28
2018-11-29T14:28:32.760Z,22.31
2018-11-29T14:31:02.572Z,22.30
2018-11-29T14:33:32.492Z,22.27
2018-11-29T14:36:02.656Z,22.26
2018-11-29T14:38:32.457Z,22.23
2018-11-29T14:41:02.429Z,22.22
2018-11-29T14:43:32.184Z,22.23
2018-11-29T14:46:02.027Z,22.23
2018-11-29T14:48:31.773Z,22.26
2018-11-29T14:51:02.613Z,22.29
2018-11-29T14:53:31.503Z,22.35
2018-11-29T14:56:01.223Z,22.34
2018-11-29T14:58:30.998Z,22.39
2018-11-29T15:01:00.851Z,22.52
2018-11-29T15:03:30.789Z,22.64
2018-11-29T15:06:00.585Z,22.76
2018-11-29T15:08:30.265Z,22.84
2018-11-29T15:11:00.000Z,23.01
2018-11-29T15:13:30.721Z,23.18
2018-11-29T15:16:00.653Z,23.36
2018-11-29T15:18:30.493Z,23.65
2018-11-29T15:21:00.304Z,23.84
2018-11-29T15:23:30.508Z,24.15
2018-11-29T15:26:01.260Z,24.29
2018-11-29T15:28:31.279Z,24.60
2018-11-29T15:31:01.199Z,24.92
2018-11-29T15:33:31.358Z,25.02
2018-11-29T15:36:01.229Z,25.16
2018-11-29T15:38:31.077Z,25.51
2018-11-29T15:41:01.500Z,26.08
2018-11-29T15:43:31.540Z,26.28
2018-11-29T15:46:01.393Z,26.52
2018-11-29T15:48:31.141Z,26.89
2018-11-29T15:51:00.850Z,27.22
2018-11-29T15:53:30.569Z,27.54
2018-11-29T15:56:05.845Z,27.78
2018-11-29T15:58:36.410Z,28.15
2018-11-29T16:01:06.284Z,28.27
2018-11-29T16:03:37.513Z,28.46
2018-11-29T16:06:07.972Z,28.64
2018-11-29T16:08:38.173Z,28.91
2018-11-29T16:11:07.963Z,29.20
2018-11-29T16:13:37.680Z,29.39
2018-11-29T16:16:07.481Z,29.33
2018-11-29T16:18:37.262Z,29.40
2018-11-29T16:21:07.123Z,29.86
2018-11-29T16:23:36.840Z,30.05
2018-11-29T16:26:06.596Z,29.95
2018-11-29T16:28:36.410Z,30.14
2018-11-29T16:31:08.362Z,30.28
2018-11-29T16:33:39.460Z,30.39
2018-11-29T16:36:09.633Z,30.64
2018-11-29T16:38:39.529Z,30.81
2018-11-29T16:41:09.236Z,30.89
2018-11-29T16:43:39.032Z,30.95
2018-11-29T16:46:08.757Z,31.11
2018-11-29T16:48:38.553Z,31.13
2018-11-29T16:51:08.314Z,31.30
2018-11-29T16:53:38.067Z,31.38
2018-11-29T16:56:07.853Z,31.31
2018-11-29T16:58:37.553Z,31.43
2018-11-29T17:01:09.044Z,31.49
2018-11-29T17:03:37.442Z,31.44
2018-11-29T17:06:07.244Z,31.57
2018-11-29T17:08:37.081Z,31.21
2018-11-29T17:11:06.832Z,31.23
2018-11-29T17:13:37.428Z,31.42
2018-11-29T17:16:08.958Z,31.57
2018-11-29T17:18:38.753Z,31.50
2018-11-29T17:21:08.539Z,31.34
2018-11-29T17:23:38.375Z,31.18
2018-11-29T17:26:08.137Z,30.85
2018-11-29T17:28:37.953Z,31.27
2018-11-29T17:31:07.822Z,31.25
2018-11-29T17:33:37.590Z,31.43
2018-11-29T17:36:07.408Z,31.42
2018-11-29T17:38:37.115Z,31.27
2018-11-29T17:41:08.600Z,31.22
2018-11-29T17:43:38.307Z,31.24
2018-11-29T17:46:09.258Z,31.19
2018-11-29T17:48:39.026Z,31.24
2018-11-29T17:51:09.042Z,31.04
2018-11-29T17:53:38.821Z,31.29
2018-11-29T17:56:08.584Z,31.17
2018-11-29T17:58:38.405Z,31.25
2018-11-29T18:01:08.224Z,31.19
2018-11-29T18:03:38.017Z,31.16
2018-11-29T18:06:07.772Z,30.94
2018-11-29T18:08:37.764Z,30.91
2018-11-29T18:11:08.389Z,31.00
2018-11-29T18:13:39.110Z,31.04
2018-11-29T18:16:08.805Z,30.92
2018-11-29T18:18:38.620Z,30.99
2018-11-29T18:21:08.546Z,30.91
2018-11-29T18:23:38.437Z,30.95
2018-11-29T18:26:08.132Z,31.07
2018-11-29T18:28:37.916Z,31.06
2018-11-29T18:31:07.748Z,31.02
2018-11-29T18:33:37.717Z,31.21
2018-11-29T18:36:07.746Z,30.83
2018-11-29T18:38:37.542Z,30.95
2018-11-29T18:41:07.395Z,30.77
2018-11-29T18:43:37.305Z,30.88
2018-11-29T18:46:06.949Z,30.62
2018-11-29T18:48:36.769Z,30.85
2018-11-29T18:51:06.698Z,30.70
2018-11-29T18:53:36.533Z,30.75
2018-11-29T18:56:06.349Z,30.52
2018-11-29T18:58:36.179Z,30.46
2018-11-29T19:01:06.182Z,30.60
2018-11-29T19:03:35.993Z,30.68
2018-11-29T19:06:05.851Z,30.46
2018-11-29T19:08:35.749Z,30.59
2018-11-29T19:11:05.653Z,30.61
2018-11-29T19:13:35.548Z,30.53
2018-11-29T19:16:05.492Z,30.45
2018-11-29T19:18:35.266Z,30.37
2018-11-29T19:21:05.259Z,30.15
2018-11-29T19:23:35.288Z,30.41
2018-11-29T19:26:04.689Z,30.10
2018-11-29T19:28:34.702Z,30.14
2018-11-29T19:31:04.486Z,30.21
2018-11-29T19:33:34.159Z,30.30
2018-11-29T19:36:03.936Z,30.13
2018-11-29T19:38:33.790Z,30.19
2018-11-29T19:41:03.525Z,30.15
2018-11-29T19:43:33.325Z,30.02
2018-11-29T19:46:03.193Z,30.01
2018-11-29T19:48:32.894Z,29.89
2018-11-29T19:51:02.700Z,29.88
2018-11-29T19:53:32.555Z,29.84
2018-11-29T19:56:03.314Z,29.71
2018-11-29T19:58:33.138Z,29.71
2018-11-29T20:01:03.061Z,29.66
2018-11-29T20:03:34.833Z,29.65
2018-11-29T20:06:04.809Z,29.79
2018-11-29T20:08:34.758Z,29.66
2018-11-29T20:11:04.573Z,29.69
2018-11-29T20:13:35.233Z,29.58
2018-11-29T20:16:05.085Z,29.60
2018-11-29T20:18:34.867Z,29.54
2018-11-29T20:21:04.838Z,29.54
2018-11-29T20:23:34.609Z,29.30
2018-11-29T20:26:04.433Z,29.35
2018-11-29T20:28:34.129Z,29.32
2018-11-29T20:31:03.954Z,29.24
2018-11-29T20:33:34.121Z,29.18
2018-11-29T20:36:04.012Z,29.22
2018-11-29T20:38:33.817Z,29.18
2018-11-29T20:41:04.065Z,28.93
2018-11-29T20:43:33.830Z,29.03
2018-11-29T20:46:04.038Z,28.90
2018-11-29T20:48:33.858Z,28.81
2018-11-29T20:51:03.713Z,28.91
2018-11-29T20:53:36.085Z,28.83
2018-11-29T20:56:07.549Z,28.74
2018-11-29T20:58:37.637Z,28.76
2018-11-29T21:01:08.441Z,28.77
2018-11-29T21:03:38.315Z,28.72
2018-11-29T21:06:10.030Z,28.74
2018-11-29T21:08:40.329Z,28.70
2018-11-29T21:11:10.165Z,28.69
2018-11-29T21:13:39.953Z,28.55
2018-11-29T21:16:09.597Z,28.57
2018-11-29T21:18:40.387Z,28.49
2018-11-29T21:21:10.382Z,28.41
2018-11-29T21:23:40.269Z,28.21
2018-11-29T21:26:09.873Z,28.29
2018-11-29T21:28:39.754Z,28.29
2018-11-29T21:31:09.525Z,28.28
2018-11-29T21:33:39.377Z,28.19
2018-11-29T21:36:09.180Z,28.17
2018-11-29T21:38:38.954Z,28.12
2018-11-29T21:41:09.053Z,28.05
2018-11-29T21:43:38.997Z,27.99
2018-11-29T21:46:09.900Z,27.96
2018-11-29T21:48:39.624Z,27.95
2018-11-29T21:51:09.665Z,27.86
2018-11-29T21:53:39.355Z,27.85
2018-11-29T21:56:09.228Z,27.82
2018-11-29T21:58:38.954Z,27.78
2018-11-29T22:01:09.333Z,27.73
2018-11-29T22:03:39.221Z,27.60
2018-11-29T22:06:09.428Z,27.55
2018-11-29T22:08:39.321Z,27.58
2018-11-29T22:11:09.220Z,27.57
2018-11-29T22:13:39.010Z,27.41
2018-11-29T22:16:08.948Z,27.42
2018-11-29T22:18:38.737Z,27.33
2018-11-29T22:21:08.548Z,27.32
2018-11-29T22:23:39.245Z,27.34
2018-11-29T22:26:13.129Z,27.18
2018-11-29T22:28:43.172Z,27.11
2018-11-29T22:31:13.205Z,27.08
2018-11-29T22:33:42.865Z,26.98
2018-11-29T22:36:12.684Z,27.03
2018-11-29T22:38:44.460Z,26.92
2018-11-29T22:41:12.437Z,26.93
2018-11-29T22:43:42.130Z,27.02
2018-11-29T22:46:11.933Z,26.92
2018-11-29T22:48:41.798Z,26.85
2018-11-29T22:51:11.576Z,26.75
2018-11-29T22:53:41.413Z,26.74
2018-11-29T22:56:10.998Z,26.75
2018-11-29T22:58:40.793Z,26.72
2018-11-29T23:01:41.292Z,26.71
2018-11-29T23:04:11.080Z,26.66
2018-11-29T23:06:40.925Z,26.54
2018-11-29T23:09:10.909Z,26.57
2018-11-29T23:11:40.721Z,26.54
2018-11-29T23:14:10.521Z,26.49
2018-11-29T23:16:40.317Z,26.46
2018-11-29T23:19:10.021Z,26.41
2018-11-29T23:21:39.803Z,26.30
2018-11-29T23:24:09.542Z,26.28
2018-11-29T23:26:39.321Z,26.25
2018-11-29T23:29:08.930Z,26.23
2018-11-29T23:31:38.717Z,26.21
2018-11-29T23:34:08.458Z,26.19
2018-11-29T23:36:38.321Z,26.10
2018-11-29T23:39:08.789Z,26.10
2018-11-29T23:41:38.634Z,26.08
2018-11-29T23:44:08.425Z,26.01
2018-11-29T23:46:38.278Z,25.97
2018-11-29T23:49:08.127Z,25.93
2018-11-29T23:51:37.967Z,25.88
2018-11-29T23:54:07.825Z,25.85
2018-11-29T23:56:37.632Z,25.81
2018-11-29T23:59:07.449Z,25.74
